sensor_id;sensor_type;location;lat;lon;timestamp;temperature;humidity
3756;DHT22;1893;52.526;13.360;2023-04-25T00:00:45;8.80;99.90
3756;DHT22;1893;52.526;13.360;2023-04-25T00:03:11;8.90;99.90
3756;DHT22;1893;52.526;13.360;2023-04-25T00:05:36;8.90;99.90
3756;DHT22;1893;52.526;13.360;2023-04-25T00:08:03;8.90;99.90
3756;DHT22;1893;52.526;13.360;2023-04-25T00:10:29;8.90;99.90
3756;DHT22;1893;52.526;13.360;2023-04-25T00:12:54;9.00;99.90
3756;DHT22;1893;52.526;13.360;2023-04-25T00:15:20;8.90;99.90
3756;DHT22;1893;52.526;13.360;2023-04-25T00:17:46;8.90;99.90
3756;DHT22;1893;52.526;13.360;2023-04-25T00:20:11;8.90;1.00
3756;DHT22;1893;52.526;13.360;2023-04-25T00:22:37;8.90;1.00
3756;DHT22;1893;52.526;13.360;2023-04-25T00:25:06;8.90;99.90
3756;DHT22;1893;52.526;13.360;2023-04-25T00:27:32;8.90;99.90
3756;DHT22;1893;52.526;13.360;2023-04-25T00:29:58;9.00;99.90
3756;DHT22;1893;52.526;13.360;2023-04-25T00:32:23;8.90;99.90
3756;DHT22;1893;52.526;13.360;2023-04-25T00:34:49;9.00;99.90
3756;DHT22;1893;52.526;13.360;2023-04-25T00:37:15;9.00;99.90
3756;DHT22;1893;52.526;13.360;2023-04-25T00:39:41;8.90;99.90
3756;DHT22;1893;52.526;13.360;2023-04-25T00:42:07;8.90;99.90
3756;DHT22;1893;52.526;13.360;2023-04-25T00:44:33;8.90;99.90
3756;DHT22;1893;52.526;13.360;2023-04-25T00:47:01;8.90;99.90
3756;DHT22;1893;52.526;13.360;2023-04-25T00:49:27;8.90;99.90
3756;DHT22;1893;52.526;13.360;2023-04-25T00:51:52;8.80;99.90
3756;DHT22;1893;52.526;13.360;2023-04-25T00:54:18;9.00;99.90
3756;DHT22;1893;52.526;13.360;2023-04-25T00:56:44;8.80;99.90
3756;DHT22;1893;52.526;13.360;2023-04-25T00:59:10;8.90;99.90
3756;DHT22;1893;52.526;13.360;2023-04-25T01:01:36;8.90;99.90
3756;DHT22;1893;52.526;13.360;2023-04-25T01:04:04;8.80;99.90
3756;DHT22;1893;52.526;13.360;2023-04-25T01:06:30;8.80;99.90
3756;DHT22;1893;52.526;13.360;2023-04-25T01:08:57;8.80;99.90
3756;DHT22;1893;52.526;13.360;2023-04-25T01:11:24;8.80;99.90
3756;DHT22;1893;52.526;13.360;2023-04-25T01:13:49;8.80;99.90
3756;DHT22;1893;52.526;13.360;2023-04-25T01:16:15;8.80;99.90
3756;DHT22;1893;52.526;13.360;2023-04-25T01:18:41;8.80;99.90
3756;DHT22;1893;52.526;13.360;2023-04-25T01:21:11;8.90;99.90
3756;DHT22;1893;52.526;13.360;2023-04-25T01:23:39;8.80;99.90
3756;DHT22;1893;52.526;13.360;2023-04-25T01:26:06;8.80;99.90
3756;DHT22;1893;52.526;13.360;2023-04-25T01:28:33;8.80;99.90
3756;DHT22;1893;52.526;13.360;2023-04-25T01:31:00;8.80;99.90
3756;DHT22;1893;52.526;13.360;2023-04-25T01:33:26;8.80;99.90
3756;DHT22;1893;52.526;13.360;2023-04-25T01:35:51;8.90;99.90
3756;DHT22;1893;52.526;13.360;2023-04-25T01:38:17;8.90;99.90
3756;DHT22;1893;52.526;13.360;2023-04-25T01:40:45;8.80;99.90
3756;DHT22;1893;52.526;13.360;2023-04-25T01:43:10;8.80;99.90
3756;DHT22;1893;52.526;13.360;2023-04-25T01:45:41;8.80;99.90
3756;DHT22;1893;52.526;13.360;2023-04-25T01:48:11;8.80;99.90
3756;DHT22;1893;52.526;13.360;2023-04-25T01:50:38;8.80;99.90
3756;DHT22;1893;52.526;13.360;2023-04-25T01:53:04;8.80;99.90
3756;DHT22;1893;52.526;13.360;2023-04-25T01:55:30;8.70;99.90
3756;DHT22;1893;52.526;13.360;2023-04-25T01:57:56;8.80;99.90
3756;DHT22;1893;52.526;13.360;2023-04-25T02:00:22;8.70;99.90
3756;DHT22;1893;52.526;13.360;2023-04-25T02:02:48;8.80;99.90
3756;DHT22;1893;52.526;13.360;2023-04-25T02:05:16;8.70;99.90
3756;DHT22;1893;52.526;13.360;2023-04-25T02:07:42;8.60;99.90
3756;DHT22;1893;52.526;13.360;2023-04-25T02:10:08;8.70;99.90
3756;DHT22;1893;52.526;13.360;2023-04-25T02:12:35;8.70;99.90
3756;DHT22;1893;52.526;13.360;2023-04-25T02:15:00;8.70;99.90
3756;DHT22;1893;52.526;13.360;2023-04-25T02:17:26;8.70;99.90
3756;DHT22;1893;52.526;13.360;2023-04-25T02:19:52;8.70;99.90
3756;DHT22;1893;52.526;13.360;2023-04-25T02:22:18;8.60;99.90
3756;DHT22;1893;52.526;13.360;2023-04-25T02:24:43;8.60;99.90
3756;DHT22;1893;52.526;13.360;2023-04-25T02:27:09;8.60;99.90
3756;DHT22;1893;52.526;13.360;2023-04-25T02:29:35;8.50;99.90
3756;DHT22;1893;52.526;13.360;2023-04-25T02:32:00;8.60;99.90
3756;DHT22;1893;52.526;13.360;2023-04-25T02:34:26;8.60;99.90
3756;DHT22;1893;52.526;13.360;2023-04-25T02:36:52;8.60;99.90
3756;DHT22;1893;52.526;13.360;2023-04-25T02:39:17;8.60;99.90
3756;DHT22;1893;52.526;13.360;2023-04-25T02:41:43;8.60;99.90
3756;DHT22;1893;52.526;13.360;2023-04-25T02:44:08;8.50;99.90
3756;DHT22;1893;52.526;13.360;2023-04-25T02:46:34;8.50;99.90
3756;DHT22;1893;52.526;13.360;2023-04-25T02:49:00;8.50;99.90
3756;DHT22;1893;52.526;13.360;2023-04-25T02:51:25;8.50;99.90
3756;DHT22;1893;52.526;13.360;2023-04-25T02:53:51;8.50;99.90
3756;DHT22;1893;52.526;13.360;2023-04-25T02:56:17;8.50;99.90
3756;DHT22;1893;52.526;13.360;2023-04-25T02:58:42;8.60;99.90
3756;DHT22;1893;52.526;13.360;2023-04-25T03:01:08;8.50;99.90
3756;DHT22;1893;52.526;13.360;2023-04-25T03:03:34;8.50;99.90
3756;DHT22;1893;52.526;13.360;2023-04-25T03:05:59;8.40;99.90
3756;DHT22;1893;52.526;13.360;2023-04-25T03:08:25;8.40;99.90
3756;DHT22;1893;52.526;13.360;2023-04-25T03:10:54;8.40;99.90
3756;DHT22;1893;52.526;13.360;2023-04-25T03:13:20;8.40;99.90
3756;DHT22;1893;52.526;13.360;2023-04-25T03:15:46;8.40;99.90
3756;DHT22;1893;52.526;13.360;2023-04-25T03:18:12;8.40;99.90
3756;DHT22;1893;52.526;13.360;2023-04-25T03:20:37;8.50;99.90
3756;DHT22;1893;52.526;13.360;2023-04-25T03:23:04;8.50;99.90
3756;DHT22;1893;52.526;13.360;2023-04-25T03:25:30;8.40;99.90
3756;DHT22;1893;52.526;13.360;2023-04-25T03:27:55;8.40;99.90
3756;DHT22;1893;52.526;13.360;2023-04-25T03:30:21;8.40;99.90
3756;DHT22;1893;52.526;13.360;2023-04-25T03:32:47;8.40;99.90
3756;DHT22;1893;52.526;13.360;2023-04-25T03:35:12;8.40;99.90
3756;DHT22;1893;52.526;13.360;2023-04-25T03:37:38;8.40;99.90
3756;DHT22;1893;52.526;13.360;2023-04-25T03:40:06;8.50;99.90
3756;DHT22;1893;52.526;13.360;2023-04-25T03:42:31;8.40;99.90
3756;DHT22;1893;52.526;13.360;2023-04-25T03:44:57;8.40;99.90
3756;DHT22;1893;52.526;13.360;2023-04-25T03:47:23;8.40;99.90
3756;DHT22;1893;52.526;13.360;2023-04-25T03:49:48;8.40;99.90
3756;DHT22;1893;52.526;13.360;2023-04-25T03:52:17;8.40;99.90
3756;DHT22;1893;52.526;13.360;2023-04-25T03:54:42;8.50;99.90
3756;DHT22;1893;52.526;13.360;2023-04-25T03:57:08;8.40;99.90
3756;DHT22;1893;52.526;13.360;2023-04-25T03:59:33;8.50;99.90
3756;DHT22;1893;52.526;13.360;2023-04-25T04:01:59;8.50;99.90
3756;DHT22;1893;52.526;13.360;2023-04-25T04:04:25;8.40;99.90
3756;DHT22;1893;52.526;13.360;2023-04-25T04:06:50;8.40;99.90
3756;DHT22;1893;52.526;13.360;2023-04-25T04:09:17;8.40;99.90
3756;DHT22;1893;52.526;13.360;2023-04-25T04:11:43;8.40;99.90
3756;DHT22;1893;52.526;13.360;2023-04-25T04:14:09;8.40;99.90
3756;DHT22;1893;52.526;13.360;2023-04-25T04:16:35;8.40;99.90
3756;DHT22;1893;52.526;13.360;2023-04-25T04:19:01;8.40;99.90
3756;DHT22;1893;52.526;13.360;2023-04-25T04:21:27;8.50;99.90
3756;DHT22;1893;52.526;13.360;2023-04-25T04:23:52;8.40;99.90
3756;DHT22;1893;52.526;13.360;2023-04-25T04:26:20;8.50;99.90
3756;DHT22;1893;52.526;13.360;2023-04-25T04:28:49;8.40;99.90
3756;DHT22;1893;52.526;13.360;2023-04-25T04:31:16;8.40;99.90
3756;DHT22;1893;52.526;13.360;2023-04-25T04:33:43;8.40;99.90
3756;DHT22;1893;52.526;13.360;2023-04-25T04:36:10;8.40;99.90
3756;DHT22;1893;52.526;13.360;2023-04-25T04:38:35;8.70;99.90
3756;DHT22;1893;52.526;13.360;2023-04-25T04:41:02;8.50;99.90
3756;DHT22;1893;52.526;13.360;2023-04-25T04:43:28;8.50;99.90
3756;DHT22;1893;52.526;13.360;2023-04-25T04:45:55;8.50;99.90
3756;DHT22;1893;52.526;13.360;2023-04-25T04:48:22;8.60;99.90
3756;DHT22;1893;52.526;13.360;2023-04-25T04:50:47;8.60;99.90
3756;DHT22;1893;52.526;13.360;2023-04-25T04:53:13;8.60;99.90
3756;DHT22;1893;52.526;13.360;2023-04-25T04:55:39;8.70;99.90
3756;DHT22;1893;52.526;13.360;2023-04-25T04:58:06;8.50;99.90
3756;DHT22;1893;52.526;13.360;2023-04-25T05:00:32;8.50;99.90
3756;DHT22;1893;52.526;13.360;2023-04-25T05:02:58;8.50;99.90
3756;DHT22;1893;52.526;13.360;2023-04-25T05:05:24;8.40;99.90
3756;DHT22;1893;52.526;13.360;2023-04-25T05:07:50;8.60;99.90
3756;DHT22;1893;52.526;13.360;2023-04-25T05:10:17;8.50;99.90
3756;DHT22;1893;52.526;13.360;2023-04-25T05:12:43;8.50;99.90
3756;DHT22;1893;52.526;13.360;2023-04-25T05:15:09;8.50;99.90
3756;DHT22;1893;52.526;13.360;2023-04-25T05:17:35;8.60;99.90
3756;DHT22;1893;52.526;13.360;2023-04-25T05:20:01;8.50;99.90
3756;DHT22;1893;52.526;13.360;2023-04-25T05:22:27;8.50;99.90
3756;DHT22;1893;52.526;13.360;2023-04-25T05:24:53;8.60;99.90
3756;DHT22;1893;52.526;13.360;2023-04-25T05:27:18;8.50;99.90
3756;DHT22;1893;52.526;13.360;2023-04-25T05:29:44;8.50;99.90
3756;DHT22;1893;52.526;13.360;2023-04-25T05:32:10;8.40;99.90
3756;DHT22;1893;52.526;13.360;2023-04-25T05:34:36;8.50;99.90
3756;DHT22;1893;52.526;13.360;2023-04-25T05:37:02;8.60;99.90
3756;DHT22;1893;52.526;13.360;2023-04-25T05:39:27;8.60;99.90
3756;DHT22;1893;52.526;13.360;2023-04-25T05:41:53;8.50;99.90
3756;DHT22;1893;52.526;13.360;2023-04-25T05:44:19;8.50;99.90
3756;DHT22;1893;52.526;13.360;2023-04-25T05:46:45;8.60;99.90
3756;DHT22;1893;52.526;13.360;2023-04-25T05:49:10;8.80;99.90
3756;DHT22;1893;52.526;13.360;2023-04-25T05:51:36;8.60;99.90
3756;DHT22;1893;52.526;13.360;2023-04-25T05:54:01;8.70;99.90
3756;DHT22;1893;52.526;13.360;2023-04-25T05:56:27;8.60;99.90
3756;DHT22;1893;52.526;13.360;2023-04-25T05:58:53;8.50;99.90
3756;DHT22;1893;52.526;13.360;2023-04-25T06:01:18;8.50;99.90
3756;DHT22;1893;52.526;13.360;2023-04-25T06:03:44;8.60;99.90
3756;DHT22;1893;52.526;13.360;2023-04-25T06:06:11;8.60;99.90
3756;DHT22;1893;52.526;13.360;2023-04-25T06:08:37;8.60;99.90
3756;DHT22;1893;52.526;13.360;2023-04-25T06:11:03;8.60;99.90
3756;DHT22;1893;52.526;13.360;2023-04-25T06:13:29;8.60;99.90
3756;DHT22;1893;52.526;13.360;2023-04-25T06:15:55;8.60;99.90
3756;DHT22;1893;52.526;13.360;2023-04-25T06:18:20;8.70;1.00
3756;DHT22;1893;52.526;13.360;2023-04-25T06:20:46;8.80;1.00
3756;DHT22;1893;52.526;13.360;2023-04-25T06:23:12;8.80;1.00
3756;DHT22;1893;52.526;13.360;2023-04-25T06:25:37;8.80;1.00
3756;DHT22;1893;52.526;13.360;2023-04-25T06:28:03;9.00;1.00
3756;DHT22;1893;52.526;13.360;2023-04-25T06:30:28;9.00;1.00
3756;DHT22;1893;52.526;13.360;2023-04-25T06:32:55;9.00;1.00
3756;DHT22;1893;52.526;13.360;2023-04-25T06:35:20;8.90;1.00
3756;DHT22;1893;52.526;13.360;2023-04-25T06:37:46;9.00;1.00
3756;DHT22;1893;52.526;13.360;2023-04-25T06:40:12;8.90;1.00
3756;DHT22;1893;52.526;13.360;2023-04-25T06:42:38;8.90;1.00
3756;DHT22;1893;52.526;13.360;2023-04-25T06:45:04;9.00;1.00
3756;DHT22;1893;52.526;13.360;2023-04-25T06:47:29;8.90;1.00
3756;DHT22;1893;52.526;13.360;2023-04-25T06:49:55;8.90;1.00
3756;DHT22;1893;52.526;13.360;2023-04-25T06:52:21;8.70;1.00
3756;DHT22;1893;52.526;13.360;2023-04-25T06:54:46;8.60;1.00
3756;DHT22;1893;52.526;13.360;2023-04-25T06:57:12;8.80;1.00
3756;DHT22;1893;52.526;13.360;2023-04-25T06:59:38;8.90;1.00
3756;DHT22;1893;52.526;13.360;2023-04-25T07:02:04;8.80;1.00
3756;DHT22;1893;52.526;13.360;2023-04-25T07:04:29;8.90;1.00
3756;DHT22;1893;52.526;13.360;2023-04-25T07:06:56;8.80;1.00
3756;DHT22;1893;52.526;13.360;2023-04-25T07:09:22;8.80;1.00
3756;DHT22;1893;52.526;13.360;2023-04-25T07:11:47;8.90;1.00
3756;DHT22;1893;52.526;13.360;2023-04-25T07:14:13;8.80;1.00
3756;DHT22;1893;52.526;13.360;2023-04-25T07:16:39;8.80;1.00
3756;DHT22;1893;52.526;13.360;2023-04-25T07:19:05;8.60;1.00
3756;DHT22;1893;52.526;13.360;2023-04-25T07:21:30;8.50;1.00
3756;DHT22;1893;52.526;13.360;2023-04-25T07:23:57;8.50;31.80
3756;DHT22;1893;52.526;13.360;2023-04-25T07:26:22;8.50;1.00
3756;DHT22;1893;52.526;13.360;2023-04-25T07:28:48;8.70;17.20
3756;DHT22;1893;52.526;13.360;2023-04-25T07:31:16;8.70;1.00
3756;DHT22;1893;52.526;13.360;2023-04-25T07:33:43;8.80;1.00
3756;DHT22;1893;52.526;13.360;2023-04-25T07:36:10;8.50;1.00
3756;DHT22;1893;52.526;13.360;2023-04-25T07:38:36;8.60;1.00
3756;DHT22;1893;52.526;13.360;2023-04-25T07:41:01;8.80;1.00
3756;DHT22;1893;52.526;13.360;2023-04-25T07:43:27;8.90;1.00
3756;DHT22;1893;52.526;13.360;2023-04-25T07:45:53;8.80;99.90
3756;DHT22;1893;52.526;13.360;2023-04-25T07:48:18;8.80;99.90
3756;DHT22;1893;52.526;13.360;2023-04-25T07:50:44;9.00;99.90
3756;DHT22;1893;52.526;13.360;2023-04-25T07:53:11;9.00;99.90
3756;DHT22;1893;52.526;13.360;2023-04-25T07:55:36;8.90;99.90
3756;DHT22;1893;52.526;13.360;2023-04-25T07:58:08;8.90;99.90
3756;DHT22;1893;52.526;13.360;2023-04-25T08:00:34;9.00;99.90
3756;DHT22;1893;52.526;13.360;2023-04-25T08:03:00;8.90;99.90
3756;DHT22;1893;52.526;13.360;2023-04-25T08:05:26;9.00;99.90
3756;DHT22;1893;52.526;13.360;2023-04-25T08:07:51;9.00;99.90
3756;DHT22;1893;52.526;13.360;2023-04-25T08:10:17;9.20;99.90
3756;DHT22;1893;52.526;13.360;2023-04-25T08:12:43;9.50;99.90
3756;DHT22;1893;52.526;13.360;2023-04-25T08:15:08;9.40;99.90
3756;DHT22;1893;52.526;13.360;2023-04-25T08:17:34;9.50;99.90
3756;DHT22;1893;52.526;13.360;2023-04-25T08:20:00;9.30;99.90
3756;DHT22;1893;52.526;13.360;2023-04-25T08:22:25;9.10;99.90
3756;DHT22;1893;52.526;13.360;2023-04-25T08:24:51;9.10;99.90
3756;DHT22;1893;52.526;13.360;2023-04-25T08:27:18;9.40;99.90
3756;DHT22;1893;52.526;13.360;2023-04-25T08:29:43;9.70;99.90
3756;DHT22;1893;52.526;13.360;2023-04-25T08:32:09;9.60;99.90
3756;DHT22;1893;52.526;13.360;2023-04-25T08:34:35;9.50;99.90
3756;DHT22;1893;52.526;13.360;2023-04-25T08:37:02;9.50;99.90
3756;DHT22;1893;52.526;13.360;2023-04-25T08:39:29;9.60;99.90
3756;DHT22;1893;52.526;13.360;2023-04-25T08:41:56;9.50;99.90
3756;DHT22;1893;52.526;13.360;2023-04-25T08:44:22;9.40;99.90
3756;DHT22;1893;52.526;13.360;2023-04-25T08:46:49;9.60;99.90
3756;DHT22;1893;52.526;13.360;2023-04-25T08:49:17;9.90;99.90
3756;DHT22;1893;52.526;13.360;2023-04-25T08:51:46;10.30;99.90
3756;DHT22;1893;52.526;13.360;2023-04-25T08:54:14;10.80;99.90
3756;DHT22;1893;52.526;13.360;2023-04-25T08:56:44;11.00;99.90
3756;DHT22;1893;52.526;13.360;2023-04-25T08:59:12;11.10;99.90
3756;DHT22;1893;52.526;13.360;2023-04-25T09:01:37;10.70;99.90
3756;DHT22;1893;52.526;13.360;2023-04-25T09:04:03;10.90;99.90
3756;DHT22;1893;52.526;13.360;2023-04-25T09:06:32;11.00;99.90
3756;DHT22;1893;52.526;13.360;2023-04-25T09:09:02;11.20;99.90
3756;DHT22;1893;52.526;13.360;2023-04-25T09:11:29;12.30;99.90
3756;DHT22;1893;52.526;13.360;2023-04-25T09:16:36;11.90;99.90
3756;DHT22;1893;52.526;13.360;2023-04-25T09:19:32;12.20;99.90
3756;DHT22;1893;52.526;13.360;2023-04-25T09:22:03;11.90;99.90
3756;DHT22;1893;52.526;13.360;2023-04-25T09:29:33;12.00;99.90
3756;DHT22;1893;52.526;13.360;2023-04-25T09:32:18;11.50;99.90
3756;DHT22;1893;52.526;13.360;2023-04-25T09:37:21;13.30;99.90
3756;DHT22;1893;52.526;13.360;2023-04-25T09:40:06;13.50;99.90
3756;DHT22;1893;52.526;13.360;2023-04-25T09:42:33;13.00;99.90
3756;DHT22;1893;52.526;13.360;2023-04-25T09:45:03;12.10;99.90
3756;DHT22;1893;52.526;13.360;2023-04-25T09:47:29;11.70;99.90
3756;DHT22;1893;52.526;13.360;2023-04-25T09:49:55;11.50;99.90
3756;DHT22;1893;52.526;13.360;2023-04-25T09:52:22;11.50;99.90
3756;DHT22;1893;52.526;13.360;2023-04-25T09:54:49;11.10;99.90
3756;DHT22;1893;52.526;13.360;2023-04-25T09:57:16;10.90;99.90
3756;DHT22;1893;52.526;13.360;2023-04-25T09:59:53;10.50;99.90
3756;DHT22;1893;52.526;13.360;2023-04-25T10:02:24;10.90;99.90
3756;DHT22;1893;52.526;13.360;2023-04-25T10:04:54;11.40;99.90
3756;DHT22;1893;52.526;13.360;2023-04-25T10:07:22;11.80;99.90
3756;DHT22;1893;52.526;13.360;2023-04-25T10:09:56;11.50;99.90
3756;DHT22;1893;52.526;13.360;2023-04-25T10:12:25;11.80;99.90
3756;DHT22;1893;52.526;13.360;2023-04-25T10:14:52;11.70;99.90
3756;DHT22;1893;52.526;13.360;2023-04-25T10:17:19;11.80;99.90
3756;DHT22;1893;52.526;13.360;2023-04-25T10:19:49;12.10;99.90
3756;DHT22;1893;52.526;13.360;2023-04-25T10:22:18;11.60;99.90
3756;DHT22;1893;52.526;13.360;2023-04-25T10:24:46;11.40;99.90
3756;DHT22;1893;52.526;13.360;2023-04-25T10:27:12;11.70;99.90
3756;DHT22;1893;52.526;13.360;2023-04-25T10:29:38;11.70;99.90
3756;DHT22;1893;52.526;13.360;2023-04-25T10:32:08;11.30;99.90
3756;DHT22;1893;52.526;13.360;2023-04-25T10:34:43;11.40;99.90
3756;DHT22;1893;52.526;13.360;2023-04-25T10:37:12;11.40;99.90
3756;DHT22;1893;52.526;13.360;2023-04-25T10:39:40;11.30;99.90
3756;DHT22;1893;52.526;13.360;2023-04-25T10:42:07;11.20;99.90
3756;DHT22;1893;52.526;13.360;2023-04-25T10:44:33;11.50;99.90
3756;DHT22;1893;52.526;13.360;2023-04-25T10:47:01;11.50;99.90
3756;DHT22;1893;52.526;13.360;2023-04-25T10:52:15;11.30;99.90
3756;DHT22;1893;52.526;13.360;2023-04-25T10:54:52;11.10;99.90
3756;DHT22;1893;52.526;13.360;2023-04-25T10:57:45;10.70;99.90
3756;DHT22;1893;52.526;13.360;2023-04-25T11:00:17;10.80;99.90
3756;DHT22;1893;52.526;13.360;2023-04-25T11:02:45;11.30;99.90
3756;DHT22;1893;52.526;13.360;2023-04-25T11:05:23;11.50;99.90
3756;DHT22;1893;52.526;13.360;2023-04-25T11:07:52;11.60;99.90
3756;DHT22;1893;52.526;13.360;2023-04-25T11:10:18;11.90;99.90
3756;DHT22;1893;52.526;13.360;2023-04-25T11:12:45;11.40;99.90
3756;DHT22;1893;52.526;13.360;2023-04-25T11:15:12;10.70;99.90
3756;DHT22;1893;52.526;13.360;2023-04-25T11:17:38;10.60;99.90
3756;DHT22;1893;52.526;13.360;2023-04-25T11:20:06;10.10;99.90
3756;DHT22;1893;52.526;13.360;2023-04-25T11:22:38;9.90;99.90
3756;DHT22;1893;52.526;13.360;2023-04-25T11:25:07;9.90;99.90
3756;DHT22;1893;52.526;13.360;2023-04-25T11:27:32;10.00;99.90
3756;DHT22;1893;52.526;13.360;2023-04-25T11:29:58;10.00;99.90
3756;DHT22;1893;52.526;13.360;2023-04-25T11:32:24;9.80;99.90
3756;DHT22;1893;52.526;13.360;2023-04-25T11:34:49;9.90;99.90
3756;DHT22;1893;52.526;13.360;2023-04-25T11:37:15;9.90;99.90
3756;DHT22;1893;52.526;13.360;2023-04-25T11:39:45;10.00;99.90
3756;DHT22;1893;52.526;13.360;2023-04-25T11:42:13;10.10;99.90
3756;DHT22;1893;52.526;13.360;2023-04-25T11:44:39;10.40;99.90
3756;DHT22;1893;52.526;13.360;2023-04-25T11:47:05;10.70;99.90
3756;DHT22;1893;52.526;13.360;2023-04-25T11:49:31;11.00;99.90
3756;DHT22;1893;52.526;13.360;2023-04-25T11:51:57;10.80;99.90
3756;DHT22;1893;52.526;13.360;2023-04-25T11:54:23;10.40;99.90
3756;DHT22;1893;52.526;13.360;2023-04-25T11:56:49;10.20;99.90
3756;DHT22;1893;52.526;13.360;2023-04-25T11:59:14;10.50;99.90
3756;DHT22;1893;52.526;13.360;2023-04-25T12:01:48;11.00;99.90
3756;DHT22;1893;52.526;13.360;2023-04-25T12:04:31;10.60;99.90
3756;DHT22;1893;52.526;13.360;2023-04-25T12:06:57;10.80;99.90
3756;DHT22;1893;52.526;13.360;2023-04-25T12:09:32;10.60;99.90
3756;DHT22;1893;52.526;13.360;2023-04-25T12:11:59;10.60;99.90
3756;DHT22;1893;52.526;13.360;2023-04-25T12:14:33;10.50;99.90
3756;DHT22;1893;52.526;13.360;2023-04-25T12:17:01;10.70;99.90
3756;DHT22;1893;52.526;13.360;2023-04-25T12:19:35;10.60;99.90
3756;DHT22;1893;52.526;13.360;2023-04-25T12:22:02;10.70;99.90
3756;DHT22;1893;52.526;13.360;2023-04-25T12:24:28;10.90;99.90
3756;DHT22;1893;52.526;13.360;2023-04-25T12:27:05;10.70;99.90
3756;DHT22;1893;52.526;13.360;2023-04-25T12:29:32;10.70;99.90
3756;DHT22;1893;52.526;13.360;2023-04-25T12:31:58;11.20;99.90
3756;DHT22;1893;52.526;13.360;2023-04-25T12:34:24;11.40;99.90
3756;DHT22;1893;52.526;13.360;2023-04-25T12:36:51;11.10;99.90
3756;DHT22;1893;52.526;13.360;2023-04-25T12:39:18;11.80;99.90
3756;DHT22;1893;52.526;13.360;2023-04-25T12:41:45;11.30;99.90
3756;DHT22;1893;52.526;13.360;2023-04-25T12:44:12;10.90;99.90
3756;DHT22;1893;52.526;13.360;2023-04-25T12:46:38;10.90;99.90
3756;DHT22;1893;52.526;13.360;2023-04-25T12:49:04;10.90;99.90
3756;DHT22;1893;52.526;13.360;2023-04-25T12:51:31;10.90;99.90
3756;DHT22;1893;52.526;13.360;2023-04-25T12:53:58;10.60;99.90
3756;DHT22;1893;52.526;13.360;2023-04-25T12:56:25;10.90;99.90
3756;DHT22;1893;52.526;13.360;2023-04-25T12:58:52;10.80;99.90
3756;DHT22;1893;52.526;13.360;2023-04-25T13:01:17;10.80;99.90
3756;DHT22;1893;52.526;13.360;2023-04-25T13:03:43;10.80;99.90
3756;DHT22;1893;52.526;13.360;2023-04-25T13:06:09;10.80;99.90
3756;DHT22;1893;52.526;13.360;2023-04-25T13:08:34;10.90;99.90
3756;DHT22;1893;52.526;13.360;2023-04-25T13:11:02;11.30;99.90
3756;DHT22;1893;52.526;13.360;2023-04-25T13:13:29;11.70;99.90
3756;DHT22;1893;52.526;13.360;2023-04-25T13:15:55;11.90;99.90
3756;DHT22;1893;52.526;13.360;2023-04-25T13:18:20;11.80;99.90
3756;DHT22;1893;52.526;13.360;2023-04-25T13:20:46;12.00;99.90
3756;DHT22;1893;52.526;13.360;2023-04-25T13:23:12;11.90;99.90
3756;DHT22;1893;52.526;13.360;2023-04-25T13:25:37;11.50;99.90
3756;DHT22;1893;52.526;13.360;2023-04-25T13:28:03;11.40;99.90
3756;DHT22;1893;52.526;13.360;2023-04-25T13:30:29;11.50;99.90
3756;DHT22;1893;52.526;13.360;2023-04-25T13:32:54;11.50;99.90
3756;DHT22;1893;52.526;13.360;2023-04-25T13:35:22;11.70;99.90
3756;DHT22;1893;52.526;13.360;2023-04-25T13:37:48;11.70;99.90
3756;DHT22;1893;52.526;13.360;2023-04-25T13:40:13;11.60;99.90
3756;DHT22;1893;52.526;13.360;2023-04-25T13:42:40;11.40;99.90
3756;DHT22;1893;52.526;13.360;2023-04-25T13:45:06;11.10;99.90
3756;DHT22;1893;52.526;13.360;2023-04-25T13:47:33;10.70;99.90
3756;DHT22;1893;52.526;13.360;2023-04-25T13:49:59;11.30;99.90
3756;DHT22;1893;52.526;13.360;2023-04-25T13:52:25;11.40;99.90
3756;DHT22;1893;52.526;13.360;2023-04-25T13:54:51;11.40;99.90
3756;DHT22;1893;52.526;13.360;2023-04-25T13:57:17;11.40;99.90
3756;DHT22;1893;52.526;13.360;2023-04-25T13:59:43;11.30;99.90
3756;DHT22;1893;52.526;13.360;2023-04-25T14:02:08;11.30;99.90
3756;DHT22;1893;52.526;13.360;2023-04-25T14:04:34;10.90;99.90
3756;DHT22;1893;52.526;13.360;2023-04-25T14:07:00;10.70;99.90
3756;DHT22;1893;52.526;13.360;2023-04-25T14:09:27;10.90;99.90
3756;DHT22;1893;52.526;13.360;2023-04-25T14:11:53;10.60;99.90
3756;DHT22;1893;52.526;13.360;2023-04-25T14:14:19;10.70;99.90
3756;DHT22;1893;52.526;13.360;2023-04-25T14:16:46;10.40;99.90
3756;DHT22;1893;52.526;13.360;2023-04-25T14:19:13;10.50;99.90
3756;DHT22;1893;52.526;13.360;2023-04-25T14:21:39;10.50;99.90
3756;DHT22;1893;52.526;13.360;2023-04-25T14:24:05;10.50;99.90
3756;DHT22;1893;52.526;13.360;2023-04-25T14:26:30;10.20;99.90
3756;DHT22;1893;52.526;13.360;2023-04-25T14:28:56;10.50;99.90
3756;DHT22;1893;52.526;13.360;2023-04-25T14:31:22;10.40;99.90
3756;DHT22;1893;52.526;13.360;2023-04-25T14:33:47;10.30;99.90
3756;DHT22;1893;52.526;13.360;2023-04-25T14:36:13;10.40;99.90
3756;DHT22;1893;52.526;13.360;2023-04-25T14:38:39;10.30;99.90
3756;DHT22;1893;52.526;13.360;2023-04-25T14:41:05;10.50;99.90
3756;DHT22;1893;52.526;13.360;2023-04-25T14:43:31;11.10;99.90
3756;DHT22;1893;52.526;13.360;2023-04-25T14:45:56;11.40;99.90
3756;DHT22;1893;52.526;13.360;2023-04-25T14:48:22;11.20;99.90
3756;DHT22;1893;52.526;13.360;2023-04-25T14:50:48;10.80;99.90
3756;DHT22;1893;52.526;13.360;2023-04-25T14:53:15;10.40;99.90
3756;DHT22;1893;52.526;13.360;2023-04-25T14:55:40;10.20;99.90
3756;DHT22;1893;52.526;13.360;2023-04-25T14:58:06;9.90;99.90
3756;DHT22;1893;52.526;13.360;2023-04-25T15:00:32;10.00;99.90
3756;DHT22;1893;52.526;13.360;2023-04-25T15:02:58;10.00;99.90
3756;DHT22;1893;52.526;13.360;2023-04-25T15:05:24;9.90;99.90
3756;DHT22;1893;52.526;13.360;2023-04-25T15:07:50;9.60;99.90
3756;DHT22;1893;52.526;13.360;2023-04-25T15:10:17;9.70;99.90
3756;DHT22;1893;52.526;13.360;2023-04-25T15:12:43;9.70;99.90
3756;DHT22;1893;52.526;13.360;2023-04-25T15:15:09;9.70;99.90
3756;DHT22;1893;52.526;13.360;2023-04-25T15:17:40;9.70;99.90
3756;DHT22;1893;52.526;13.360;2023-04-25T15:20:07;9.70;99.90
3756;DHT22;1893;52.526;13.360;2023-04-25T15:22:35;9.80;99.90
3756;DHT22;1893;52.526;13.360;2023-04-25T15:25:01;9.80;99.90
3756;DHT22;1893;52.526;13.360;2023-04-25T15:27:27;9.70;99.90
3756;DHT22;1893;52.526;13.360;2023-04-25T15:29:52;9.90;99.90
3756;DHT22;1893;52.526;13.360;2023-04-25T15:32:18;10.20;99.90
3756;DHT22;1893;52.526;13.360;2023-04-25T15:34:44;10.40;99.90
3756;DHT22;1893;52.526;13.360;2023-04-25T15:37:09;10.50;99.90
3756;DHT22;1893;52.526;13.360;2023-04-25T15:39:36;10.20;99.90
3756;DHT22;1893;52.526;13.360;2023-04-25T15:42:01;10.10;99.90
3756;DHT22;1893;52.526;13.360;2023-04-25T15:44:28;10.30;99.90
3756;DHT22;1893;52.526;13.360;2023-04-25T15:46:54;10.20;99.90
3756;DHT22;1893;52.526;13.360;2023-04-25T15:49:19;10.50;99.90
3756;DHT22;1893;52.526;13.360;2023-04-25T15:51:47;10.30;99.90
3756;DHT22;1893;52.526;13.360;2023-04-25T15:54:13;10.10;99.90
3756;DHT22;1893;52.526;13.360;2023-04-25T15:56:39;10.10;99.90
3756;DHT22;1893;52.526;13.360;2023-04-25T15:59:04;10.00;99.90
3756;DHT22;1893;52.526;13.360;2023-04-25T16:01:30;10.00;99.90
3756;DHT22;1893;52.526;13.360;2023-04-25T16:03:57;9.90;99.90
3756;DHT22;1893;52.526;13.360;2023-04-25T16:06:25;9.90;99.90